KDOV/DOV METAR and TAF weather

Enter ICAO airport designator
Station Type Date Time Source
KDOV METAR 2019/10/16 19:50 UTC NOAA

KDOV 161950Z 13006KT 2SM +RA OVC027 17/16 A2946 RMK AO2A CIG 023 RWY01 PRESFR SLP979 $


Station Type Date Time Source
KDOV Decoded METAR 2019/10/16 19:50 UTC NOAA

Dover Air Force Base, DE, United States (KDOV) 39-08N 075-28W
Oct 16, 2019 - 03:50 PM EDT / 2019.10.16 1950 UTC
Wind: from the SE (130 degrees) at 7 MPH (6 KT):0
Visibility: 2 mile(s):0
Sky conditions: overcast
Weather: heavy rain
Temperature: 62 F (17 C)
Dew Point: 60 F (16 C)
Relative Humidity: 93%
Pressure (altimeter): 29.46 in. Hg (997 hPa)
Pressure tendency: falling rapidly
ob: KDOV 161950Z 13006KT 2SM +RA OVC027 17/16 A2946 RMK AO2A CIG 023 RWY01 PRESFR SLP979
cycle: 20

Station Type Date Time Source
KDOV TAF 2019/10/16 16:06 UTC NOAA

TAF KDOV 161600Z 1616/1722 14015G20KT 4800 RA BR SCT010 BKN020 QNH2936INS
TEMPO 1619/1622 16015G35KT 1600 +RA VCTS BKN010CB OVC020
BECMG 1622/1623 28020G35KT 4000 -RA OVC015 520005 QNH2937INS
BECMG 1702/1703 30025G40KT 9999 NSW SCT030 520004 QNH2944INS
BECMG 1705/1706 28020G35KT 9999 BKN040 520004 QNH2945INS
BECMG 1714/1715 28025G40KT 9999 SCT035 BKN050 520004 QNH2952INS TX20/1618Z TN09/1711Z

Example: see airport list